CheckWX is a tool to help pilots better visualize weather data.  It is not intended as a substitute for an official pre-flight weather briefing.

15:52:48 UTC

EYVI TAF
Vilnius International Airport
Vilnius, Lithuania
TAF EYVI 081700Z 0818/0918 VRB04KT 9000 BKN030 TEMPO 0818/0824 5000 TSRA SCT005 BKN020CB TEMPO 0900/0904 1000 MIFG BR SCT005 TEMPO 0904/0906 SCT005 BECMG 0906/0907 27014KT TEMPO 0909/0918 SHRA BKN020CB

Jul-8@
18:00 UTC

Jul-8 @ 18:00 UTC

Jul-9@
06:00 UTC

Jul-9 @ 06:00 UTC

TAF EYVI 081700Z 0818/0918 VRB04KT 9000 BKN030

Expired

Wind
  • Variable at 4 KTS
Cloud Levels
  • Broken at 3,000' AGL

Jul-8@
18:00 UTC

Jul-8 @ 18:00 UTC

Jul-9@
00:00 UTC

Jul-9 @ 00:00 UTC

TEMPO 0818/0824 5000 TSRA SCT005 BKN020CB

Expired

Conditions
Thunderstorm, Rain
Cloud Levels
  • Scattered at 500' AGL
  • Broken at 2,000' AGL

Jul-9@
00:00 UTC

Jul-9 @ 00:00 UTC

Jul-9@
04:00 UTC

Jul-9 @ 04:00 UTC

TEMPO 0900/0904 1000 MIFG BR SCT005

Expired

Conditions
Shallow Fog, Mist
Cloud Levels
  • Scattered at 500' AGL

Jul-9@
04:00 UTC

Jul-9 @ 04:00 UTC

Jul-9@
06:00 UTC

Jul-9 @ 06:00 UTC

TEMPO 0904/0906 SCT005

Expired

Cloud Levels
  • Scattered at 500' AGL

Jul-9@
06:00 UTC

Jul-9 @ 06:00 UTC

Jul-9@
18:00 UTC

Jul-9 @ 18:00 UTC

BECMG 0906/0907 27014KT

Becoming

Becoming Conditions expected by Thu, Jul 9, 2020 @ 07:00 UTC

Wind
  • 270° at 14 KTS
Cloud Levels
  • Broken at 3,000' AGL

Jul-9@
09:00 UTC

Jul-9 @ 09:00 UTC

Jul-9@
18:00 UTC

Jul-9 @ 18:00 UTC

TEMPO 0909/0918 SHRA BKN020CB

Temporary

Temporary Changes expected for less than half the time period

Conditions
Showers, Rain
Cloud Levels
  • Broken at 2,000' AGL